createdAt,value
2019-04-28T00:02:18.149Z,10.87
2019-04-28T00:04:48.727Z,8.47
2019-04-28T00:07:19.302Z,10.90
2019-04-28T00:09:51.121Z,8.03
2019-04-28T00:12:22.960Z,12.28
2019-04-28T00:14:53.827Z,10.90
2019-04-28T00:17:25.060Z,12.50
2019-04-28T00:19:57.527Z,18.00
2019-04-28T00:22:51.503Z,23.77
2019-04-28T00:25:28.409Z,14.00
2019-04-28T00:27:59.202Z,11.53
2019-04-28T00:30:31.710Z,11.12
2019-04-28T00:33:02.509Z,11.15
2019-04-28T00:35:41.833Z,13.20
2019-04-28T00:38:11.517Z,13.30
2019-04-28T00:40:42.444Z,14.90
2019-04-28T00:43:15.524Z,10.18
2019-04-28T00:45:48.895Z,9.97
2019-04-28T00:48:20.922Z,11.33
2019-04-28T00:50:52.868Z,14.43
2019-04-28T00:53:24.006Z,9.35
2019-04-28T00:56:03.961Z,13.67
2019-04-28T00:58:35.014Z,12.93
2019-04-28T01:01:09.229Z,13.37
2019-04-28T01:03:41.763Z,11.13
2019-04-28T01:06:14.067Z,12.33
2019-04-28T01:08:44.805Z,9.57
2019-04-28T01:11:15.798Z,12.15
2019-04-28T01:13:57.028Z,13.60
2019-04-28T01:16:42.090Z,9.63
2019-04-28T01:19:25.962Z,10.90
2019-04-28T01:22:16.723Z,11.50
2019-04-28T01:24:49.554Z,13.73
2019-04-28T01:27:41.913Z,11.25
2019-04-28T01:30:21.103Z,11.75
2019-04-28T01:33:06.787Z,10.40
2019-04-28T01:35:39.177Z,11.73
2019-04-28T01:38:09.931Z,14.87
2019-04-28T01:40:42.136Z,11.97
2019-04-28T01:43:12.744Z,8.83
2019-04-28T01:45:43.734Z,10.67
2019-04-28T01:48:16.058Z,11.00
2019-04-28T01:50:59.798Z,12.23
2019-04-28T01:53:30.959Z,10.27
2019-04-28T01:56:01.759Z,9.77
2019-04-28T01:58:32.387Z,10.63
2019-04-28T02:01:03.092Z,9.37
2019-04-28T02:03:34.188Z,9.90
2019-04-28T02:06:04.774Z,8.50
2019-04-28T02:08:35.384Z,15.63
2019-04-28T02:11:19.822Z,9.33
2019-04-28T02:13:50.422Z,11.13
2019-04-28T02:16:20.853Z,7.95
2019-04-28T02:18:52.680Z,13.27
2019-04-28T02:21:39.633Z,10.37
2019-04-28T02:24:27.543Z,11.22
2019-04-28T02:27:00.631Z,8.55
2019-04-28T02:29:32.616Z,10.60
2019-04-28T02:32:04.878Z,11.70
2019-04-28T02:34:35.481Z,7.92
2019-04-28T02:37:07.243Z,8.60
2019-04-28T02:39:37.641Z,13.67
2019-04-28T02:42:10.955Z,11.60
2019-04-28T02:44:41.673Z,8.53
2019-04-28T02:47:11.993Z,12.05
2019-04-28T02:49:54.097Z,8.13
2019-04-28T02:52:42.274Z,12.20
2019-04-28T02:55:12.662Z,10.00
2019-04-28T02:57:51.625Z,9.93
2019-04-28T03:00:24.537Z,11.65
2019-04-28T03:02:55.135Z,12.33
2019-04-28T03:05:25.720Z,12.67
2019-04-28T03:07:56.360Z,10.33
2019-04-28T03:10:27.137Z,10.60
2019-04-28T03:12:57.460Z,10.37
2019-04-28T03:15:30.185Z,11.57
2019-04-28T03:18:07.826Z,17.50
2019-04-28T03:20:38.341Z,25.50
2019-04-28T03:23:12.284Z,19.43
2019-04-28T03:25:56.700Z,14.10
2019-04-28T03:29:00.961Z,20.17
2019-04-28T03:32:15.604Z,14.60
2019-04-28T03:34:23.610Z,12.95
2019-04-28T03:36:54.356Z,13.20
2019-04-28T03:39:42.499Z,13.13
2019-04-28T03:42:12.840Z,11.93
2019-04-28T03:44:43.202Z,14.60
2019-04-28T03:47:13.756Z,10.38
2019-04-28T03:49:44.366Z,11.30
2019-04-28T03:52:15.157Z,13.53
2019-04-28T03:54:52.032Z,13.77
2019-04-28T03:57:31.879Z,10.70
2019-04-28T04:00:02.690Z,12.40
2019-04-28T04:02:33.002Z,11.03
2019-04-28T04:05:04.085Z,11.67
2019-04-28T04:07:34.507Z,12.77
2019-04-28T04:10:11.495Z,9.90
2019-04-28T04:13:01.697Z,13.27
2019-04-28T04:15:53.515Z,10.13
2019-04-28T04:18:27.562Z,11.35
2019-04-28T04:21:00.628Z,11.20
2019-04-28T04:23:30.932Z,12.60
2019-04-28T04:26:12.215Z,15.17
2019-04-28T04:28:42.662Z,11.50
2019-04-28T04:31:13.369Z,11.77
2019-04-28T04:33:45.363Z,11.33
2019-04-28T04:36:15.827Z,14.65
2019-04-28T04:38:46.585Z,14.87
2019-04-28T04:41:17.116Z,14.93
2019-04-28T04:43:47.520Z,14.53
2019-04-28T04:46:26.731Z,15.70
2019-04-28T04:48:57.098Z,11.83
2019-04-28T04:51:30.656Z,16.90
2019-04-28T04:54:01.079Z,16.10
2019-04-28T04:56:31.938Z,18.33
2019-04-28T04:59:02.941Z,21.10
2019-04-28T05:02:01.726Z,19.23
2019-04-28T05:04:50.974Z,24.23
2019-04-28T05:07:21.442Z,23.27
2019-04-28T05:09:52.097Z,24.53
2019-04-28T05:12:22.862Z,23.07
2019-04-28T05:15:04.314Z,30.10
2019-04-28T05:17:34.905Z,27.10
2019-04-28T05:20:05.657Z,24.80
2019-04-28T05:22:42.729Z,24.05
2019-04-28T05:25:30.861Z,18.92
2019-04-28T05:28:11.579Z,18.10
2019-04-28T05:30:55.941Z,22.47
2019-04-28T05:33:30.590Z,21.43
2019-04-28T05:36:02.973Z,21.40
2019-04-28T05:38:32.151Z,20.60
2019-04-28T05:41:13.347Z,23.80
2019-04-28T05:43:42.531Z,16.80
2019-04-28T05:46:16.262Z,19.67
2019-04-28T05:48:54.006Z,23.50
2019-04-28T05:51:26.171Z,26.70
2019-04-28T05:54:04.048Z,22.30
2019-04-28T05:56:53.567Z,19.40
2019-04-28T06:00:03.640Z,17.40
2019-04-28T06:02:53.551Z,15.33
2019-04-28T06:05:10.888Z,15.63
2019-04-28T06:08:03.540Z,12.60
2019-04-28T06:10:34.231Z,11.47
2019-04-28T06:13:04.791Z,11.77
2019-04-28T06:15:35.815Z,14.17
2019-04-28T06:18:16.948Z,13.43
2019-04-28T06:20:49.661Z,11.90
2019-04-28T06:23:20.164Z,17.30
2019-04-28T06:25:53.837Z,9.90
2019-04-28T06:28:26.897Z,11.88
2019-04-28T06:31:00.060Z,10.53
2019-04-28T06:33:31.928Z,9.10
2019-04-28T06:36:11.386Z,10.20
2019-04-28T06:38:41.637Z,10.33
2019-04-28T06:41:12.542Z,10.93
2019-04-28T06:43:45.041Z,11.87
2019-04-28T06:46:15.783Z,13.33
2019-04-28T06:48:46.157Z,10.67
2019-04-28T06:51:18.298Z,10.28
2019-04-28T06:54:01.938Z,12.23
2019-04-28T06:56:26.865Z,9.60
2019-04-28T06:58:59.094Z,10.60
2019-04-28T07:01:33.123Z,8.27
2019-04-28T07:04:03.633Z,11.80
2019-04-28T07:06:34.250Z,11.27
2019-04-28T07:09:06.334Z,8.20
2019-04-28T07:11:36.800Z,8.17
2019-04-28T07:14:07.306Z,9.53
2019-04-28T07:16:51.463Z,8.63
2019-04-28T07:19:24.419Z,11.07
2019-04-28T07:22:00.529Z,9.93
2019-04-28T07:24:31.028Z,10.20
2019-04-28T07:27:01.668Z,10.63
2019-04-28T07:29:33.282Z,10.67
2019-04-28T07:32:17.948Z,10.63
2019-04-28T07:34:52.175Z,10.13
2019-04-28T07:37:35.453Z,9.88
2019-04-28T07:40:09.388Z,9.14
2019-04-28T07:42:41.608Z,8.00
2019-04-28T07:45:12.400Z,7.83
2019-04-28T07:47:46.510Z,9.33
2019-04-28T07:50:18.025Z,9.53
2019-04-28T07:53:13.825Z,9.87
2019-04-28T07:55:44.904Z,8.23
2019-04-28T07:58:15.630Z,10.37
2019-04-28T08:01:03.466Z,6.73
2019-04-28T08:03:35.013Z,7.67
2019-04-28T08:06:05.544Z,9.07
2019-04-28T08:08:38.455Z,8.60
2019-04-28T08:11:11.853Z,8.10
2019-04-28T08:13:42.328Z,8.60
2019-04-28T08:16:12.875Z,7.67
2019-04-28T08:18:53.743Z,7.30
2019-04-28T08:21:21.077Z,6.67
2019-04-28T08:23:51.467Z,7.63
2019-04-28T08:26:23.176Z,9.26
2019-04-28T08:28:53.778Z,7.03
2019-04-28T08:31:27.234Z,7.47
2019-04-28T08:34:02.804Z,9.23
2019-04-28T08:36:33.879Z,9.37
2019-04-28T08:39:15.236Z,8.93
2019-04-28T08:41:46.105Z,11.03
2019-04-28T08:44:16.659Z,6.73
2019-04-28T08:46:47.097Z,12.47
2019-04-28T08:49:18.141Z,8.43
2019-04-28T08:51:48.743Z,6.07
2019-04-28T08:54:19.063Z,8.40
2019-04-28T08:56:49.648Z,8.23
2019-04-28T08:59:30.007Z,5.97
2019-04-28T09:02:00.712Z,7.47
2019-04-28T09:04:31.156Z,6.53
2019-04-28T09:07:01.755Z,9.50
2019-04-28T09:09:32.074Z,8.70
2019-04-28T09:12:02.575Z,8.43
2019-04-28T09:14:33.010Z,9.10
2019-04-28T09:17:03.812Z,7.20
2019-04-28T09:19:44.677Z,7.67
2019-04-28T09:22:11.259Z,7.53
2019-04-28T09:24:41.705Z,8.77
2019-04-28T09:27:12.030Z,5.78
2019-04-28T09:29:42.426Z,7.90
2019-04-28T09:32:14.815Z,7.83
2019-04-28T09:34:45.528Z,6.53
2019-04-28T09:37:15.976Z,6.58
2019-04-28T09:39:50.453Z,8.03
2019-04-28T09:42:55.000Z,6.00
2019-04-28T09:45:55.734Z,6.40
2019-04-28T09:48:33.849Z,4.87
2019-04-28T09:51:04.466Z,6.37
2019-04-28T09:53:35.148Z,7.33
2019-04-28T09:56:05.543Z,7.63
2019-04-28T09:58:36.012Z,5.37
2019-04-28T10:01:07.486Z,8.20
2019-04-28T10:03:38.084Z,6.40
2019-04-28T10:06:08.564Z,6.13
2019-04-28T10:08:46.956Z,8.67
2019-04-28T10:11:29.688Z,6.27
2019-04-28T10:13:49.916Z,8.70
2019-04-28T10:16:20.519Z,6.50
2019-04-28T10:18:50.931Z,6.83
2019-04-28T10:21:21.457Z,7.00
2019-04-28T10:23:52.001Z,6.65
2019-04-28T10:26:22.482Z,6.55
2019-04-28T10:29:08.382Z,6.23
2019-04-28T10:31:35.013Z,6.33
2019-04-28T10:34:06.216Z,7.70
2019-04-28T10:36:36.676Z,7.17
2019-04-28T10:39:29.182Z,8.43
2019-04-28T10:41:59.927Z,8.13
2019-04-28T10:44:49.674Z,9.07
2019-04-28T10:47:20.626Z,6.35
2019-04-28T10:49:51.438Z,8.63
2019-04-28T10:52:22.251Z,8.95
2019-04-28T10:54:56.383Z,6.60
2019-04-28T10:57:29.495Z,5.80
2019-04-28T11:00:09.869Z,6.93
2019-04-28T11:02:43.322Z,7.37
2019-04-28T11:05:22.165Z,5.77
2019-04-28T11:07:53.966Z,7.23
2019-04-28T11:10:30.474Z,6.17
2019-04-28T11:13:23.584Z,7.67
2019-04-28T11:15:45.306Z,5.83
2019-04-28T11:18:16.505Z,7.58
2019-04-28T11:20:47.318Z,8.00
2019-04-28T11:23:17.943Z,6.17
2019-04-28T11:25:48.593Z,5.90
2019-04-28T11:28:19.064Z,6.73
2019-04-28T11:30:49.439Z,7.87
2019-04-28T11:33:35.742Z,8.20
2019-04-28T11:36:07.170Z,6.53
2019-04-28T11:38:37.676Z,6.37
2019-04-28T11:41:13.786Z,6.07
2019-04-28T11:43:44.705Z,6.57
2019-04-28T11:46:17.603Z,6.47
2019-04-28T11:48:54.545Z,8.53
2019-04-28T11:51:49.847Z,9.77
2019-04-28T11:54:20.303Z,7.70
2019-04-28T11:56:50.999Z,7.75
2019-04-28T11:59:21.493Z,6.87
2019-04-28T12:01:52.355Z,7.73
2019-04-28T12:04:23.276Z,9.73
2019-04-28T12:07:08.864Z,7.80
2019-04-28T12:10:10.480Z,6.00
2019-04-28T12:13:03.466Z,6.73
2019-04-28T12:15:51.533Z,8.13
2019-04-28T12:18:43.493Z,6.57
2019-04-28T12:21:31.949Z,7.20
2019-04-28T12:24:02.640Z,9.70
2019-04-28T12:26:33.441Z,6.63
2019-04-28T12:29:03.999Z,6.63
2019-04-28T12:31:34.810Z,8.80
2019-04-28T12:34:09.536Z,6.60
2019-04-28T12:36:40.426Z,7.33
2019-04-28T12:39:21.413Z,6.30
2019-04-28T12:41:52.163Z,6.30
2019-04-28T12:44:23.183Z,7.08
2019-04-28T12:46:53.780Z,7.20
2019-04-28T12:49:37.410Z,8.93
2019-04-28T12:52:08.957Z,6.77
2019-04-28T12:54:51.439Z,8.00
2019-04-28T12:57:16.521Z,7.37
2019-04-28T12:59:53.196Z,6.80
2019-04-28T13:02:30.878Z,6.55
2019-04-28T13:05:04.338Z,9.43
2019-04-28T13:07:34.703Z,7.97
2019-04-28T13:10:06.435Z,6.10
2019-04-28T13:12:44.562Z,7.67
2019-04-28T13:15:15.307Z,6.78
2019-04-28T13:17:46.268Z,8.03
2019-04-28T13:20:17.105Z,6.97
2019-04-28T13:22:47.507Z,6.10
2019-04-28T13:25:20.581Z,6.53
2019-04-28T13:27:51.110Z,6.17
2019-04-28T13:30:22.104Z,7.28
2019-04-28T13:33:14.967Z,5.90
2019-04-28T13:35:48.809Z,5.30
2019-04-28T13:38:19.447Z,6.70
2019-04-28T13:40:52.598Z,6.53
2019-04-28T13:43:30.375Z,5.47
2019-04-28T13:46:13.497Z,4.47
2019-04-28T13:48:44.138Z,4.40
2019-04-28T13:51:14.534Z,5.50
2019-04-28T13:53:47.877Z,4.10
2019-04-28T13:56:18.697Z,4.30
2019-04-28T13:58:54.755Z,3.70
2019-04-28T14:01:43.282Z,4.60
2019-04-28T14:04:45.131Z,3.80
2019-04-28T14:07:15.584Z,3.90
2019-04-28T14:09:47.135Z,4.30
2019-04-28T14:12:35.341Z,4.40
2019-04-28T14:15:06.906Z,4.35
2019-04-28T14:17:37.511Z,4.40
2019-04-28T14:20:08.335Z,3.23
2019-04-28T14:22:38.802Z,3.10
2019-04-28T14:25:09.914Z,5.20
2019-04-28T14:27:41.680Z,3.50
2019-04-28T14:30:18.293Z,3.17
2019-04-28T14:32:48.182Z,3.30
2019-04-28T14:35:18.847Z,3.25
2019-04-28T14:37:54.397Z,3.80
2019-04-28T14:40:44.458Z,3.10
2019-04-28T14:43:15.484Z,3.80
2019-04-28T14:46:05.545Z,3.07
2019-04-28T14:48:36.082Z,2.53
2019-04-28T14:51:15.584Z,2.30
2019-04-28T14:53:46.862Z,2.43
2019-04-28T14:56:17.741Z,2.17
2019-04-28T14:58:48.364Z,2.13
2019-04-28T15:01:57.122Z,2.75
2019-04-28T15:04:46.654Z,2.73
2019-04-28T15:07:55.513Z,4.47
2019-04-28T15:10:35.274Z,3.33
2019-04-28T15:13:07.522Z,4.23
2019-04-28T15:15:47.793Z,3.40
2019-04-28T15:18:26.341Z,5.90
2019-04-28T15:21:06.714Z,5.37
2019-04-28T15:23:34.531Z,7.03
2019-04-28T15:26:05.199Z,4.53
2019-04-28T15:28:36.030Z,7.27
2019-04-28T15:31:26.694Z,4.23
2019-04-28T15:34:00.417Z,6.83
2019-04-28T15:36:30.986Z,5.22
2019-04-28T15:39:01.592Z,4.08
2019-04-28T15:41:32.036Z,5.47
2019-04-28T15:44:04.200Z,3.17
2019-04-28T15:46:47.958Z,3.30
2019-04-28T15:49:18.616Z,3.83
2019-04-28T15:51:49.431Z,6.70
2019-04-28T15:54:21.162Z,3.70
2019-04-28T15:56:51.683Z,2.80
2019-04-28T15:59:24.468Z,3.10
2019-04-28T16:01:58.930Z,2.20
2019-04-28T16:04:47.334Z,2.33
2019-04-28T16:07:24.768Z,2.60
2019-04-28T16:09:50.131Z,2.77
2019-04-28T16:12:20.651Z,2.40
2019-04-28T16:14:51.453Z,2.80
2019-04-28T16:17:22.199Z,3.13
2019-04-28T16:19:52.905Z,2.50
2019-04-28T16:22:23.386Z,2.77
2019-04-28T16:25:12.599Z,3.40
2019-04-28T16:27:43.336Z,2.87
2019-04-28T16:30:15.807Z,2.50
2019-04-28T16:32:46.389Z,5.10
2019-04-28T16:35:16.935Z,4.20
2019-04-28T16:37:47.485Z,5.57
2019-04-28T16:40:18.018Z,4.30
2019-04-28T16:43:13.056Z,5.63
2019-04-28T16:45:43.654Z,6.20
2019-04-28T16:48:15.164Z,5.27
2019-04-28T16:50:45.591Z,5.00
2019-04-28T16:53:16.163Z,6.47
2019-04-28T16:56:07.725Z,6.07
2019-04-28T16:59:03.945Z,7.77
2019-04-28T17:01:57.246Z,7.30
2019-04-28T17:04:43.164Z,4.03
2019-04-28T17:07:13.767Z,5.95
2019-04-28T17:09:44.407Z,4.93
2019-04-28T17:12:15.115Z,5.90
2019-04-28T17:14:46.162Z,5.30
2019-04-28T17:17:17.146Z,5.80
2019-04-28T17:20:06.200Z,5.10
2019-04-28T17:22:29.749Z,5.33
2019-04-28T17:25:00.367Z,4.27
2019-04-28T17:27:30.874Z,6.08
2019-04-28T17:30:01.311Z,4.83
2019-04-28T17:32:31.828Z,4.13
2019-04-28T17:35:02.169Z,3.47
2019-04-28T17:37:36.846Z,3.57
2019-04-28T17:40:07.815Z,3.73
2019-04-28T17:42:56.325Z,3.60
2019-04-28T17:45:26.970Z,4.00
2019-04-28T17:48:00.145Z,4.00
2019-04-28T17:50:33.693Z,4.10
2019-04-28T17:53:04.918Z,4.07
2019-04-28T17:55:35.492Z,4.20
2019-04-28T17:58:17.803Z,4.33
2019-04-28T18:01:08.595Z,3.80
2019-04-28T18:03:52.262Z,4.73
2019-04-28T18:06:22.962Z,4.67
2019-04-28T18:09:05.510Z,5.23
2019-04-28T18:11:28.807Z,4.73
2019-04-28T18:13:59.546Z,4.63
2019-04-28T18:17:03.848Z,4.60
2019-04-28T18:19:34.572Z,5.20
2019-04-28T18:22:13.193Z,5.27
2019-04-28T18:24:41.978Z,5.60
2019-04-28T18:27:12.483Z,5.17
2019-04-28T18:29:42.859Z,6.47
2019-04-28T18:32:28.038Z,6.03
2019-04-28T18:35:05.086Z,6.07
2019-04-28T18:38:03.634Z,6.47
2019-04-28T18:40:46.503Z,5.40
2019-04-28T18:43:47.915Z,5.83
2019-04-28T18:46:22.611Z,6.07
2019-04-28T18:48:53.353Z,6.20
2019-04-28T18:51:23.881Z,6.05
2019-04-28T18:54:00.108Z,6.20
2019-04-28T18:56:30.648Z,5.57
2019-04-28T18:59:01.098Z,5.80
2019-04-28T19:01:46.682Z,5.93
2019-04-28T19:04:17.318Z,7.16
2019-04-28T19:06:48.390Z,8.73
2019-04-28T19:09:47.015Z,8.73
2019-04-28T19:12:37.957Z,8.05
2019-04-28T19:15:30.330Z,7.67
2019-04-28T19:18:15.232Z,7.13
2019-04-28T19:20:51.325Z,7.80
2019-04-28T19:23:22.877Z,8.18
2019-04-28T19:25:54.243Z,8.27
2019-04-28T19:28:33.545Z,7.37
2019-04-28T19:31:04.315Z,7.87
2019-04-28T19:33:34.962Z,8.53
2019-04-28T19:36:05.988Z,12.23
2019-04-28T19:38:46.520Z,8.37
2019-04-28T19:41:17.896Z,8.73
2019-04-28T19:43:48.518Z,8.20
2019-04-28T19:46:20.588Z,10.90
2019-04-28T19:48:51.267Z,7.53
2019-04-28T19:51:31.634Z,7.42
2019-04-28T19:53:56.104Z,7.50
2019-04-28T19:56:38.175Z,8.03
2019-04-28T19:59:19.318Z,7.17
2019-04-28T20:01:50.049Z,7.40
2019-04-28T20:04:20.611Z,9.60
2019-04-28T20:06:53.460Z,7.97
2019-04-28T20:09:24.020Z,8.40
2019-04-28T20:11:54.341Z,6.53
2019-04-28T20:14:29.839Z,7.72
2019-04-28T20:17:02.160Z,8.27
2019-04-28T20:19:32.971Z,7.30
2019-04-28T20:22:03.918Z,7.10
2019-04-28T20:24:46.658Z,7.43
2019-04-28T20:27:07.450Z,9.15
2019-04-28T20:29:37.926Z,10.05
2019-04-28T20:32:08.833Z,8.63
2019-04-28T20:34:52.330Z,9.57
2019-04-28T20:37:36.918Z,9.35
2019-04-28T20:40:12.636Z,8.23
2019-04-28T20:42:48.971Z,10.13
2019-04-28T20:45:21.622Z,8.33
2019-04-28T20:48:00.679Z,7.50
2019-04-28T20:50:31.266Z,7.97
2019-04-28T20:53:01.590Z,9.33
2019-04-28T20:55:33.486Z,8.37
2019-04-28T20:58:05.119Z,10.73
2019-04-28T21:00:35.525Z,13.77
2019-04-28T21:03:07.681Z,9.26
2019-04-28T21:05:38.203Z,7.83
2019-04-28T21:08:12.211Z,10.73
2019-04-28T21:10:43.394Z,9.17
2019-04-28T21:13:15.841Z,10.13
2019-04-28T21:15:46.478Z,9.15
2019-04-28T21:18:17.119Z,9.20
2019-04-28T21:20:47.651Z,7.70
2019-04-28T21:23:18.416Z,10.13
2019-04-28T21:25:51.339Z,8.20
2019-04-28T21:28:21.672Z,7.75
2019-04-28T21:30:59.045Z,10.80
2019-04-28T21:33:29.444Z,8.73
2019-04-28T21:35:59.750Z,7.53
2019-04-28T21:38:30.420Z,10.77
2019-04-28T21:41:00.984Z,9.30
2019-04-28T21:43:53.320Z,8.30
2019-04-28T21:46:36.692Z,10.25
2019-04-28T21:49:26.005Z,8.53
2019-04-28T21:51:56.625Z,8.93
2019-04-28T21:54:27.095Z,7.87
2019-04-28T21:56:58.247Z,7.53
2019-04-28T21:59:30.474Z,8.43
2019-04-28T22:02:02.534Z,10.67
2019-04-28T22:04:32.987Z,9.77
2019-04-28T22:07:03.344Z,6.23
2019-04-28T22:09:34.106Z,7.37
2019-04-28T22:12:04.530Z,9.00
2019-04-28T22:14:34.910Z,7.53
2019-04-28T22:17:06.575Z,8.00
2019-04-28T22:19:36.887Z,6.97
2019-04-28T22:22:08.558Z,7.73
2019-04-28T22:24:49.354Z,8.80
2019-04-28T22:27:27.915Z,8.98
2019-04-28T22:29:58.499Z,9.57
2019-04-28T22:32:28.956Z,8.43
2019-04-28T22:34:59.132Z,7.87
2019-04-28T22:37:30.271Z,7.47
2019-04-28T22:40:00.774Z,6.87
2019-04-28T22:42:41.923Z,7.87
2019-04-28T22:45:12.670Z,9.30
2019-04-28T22:47:43.168Z,9.57
2019-04-28T22:50:36.635Z,7.27
2019-04-28T22:53:07.373Z,8.55
2019-04-28T22:55:50.354Z,7.43
2019-04-28T22:58:39.328Z,10.43
2019-04-28T23:01:24.936Z,9.93
2019-04-28T23:04:10.047Z,8.57
2019-04-28T23:06:42.728Z,7.90
2019-04-28T23:09:17.667Z,8.03
2019-04-28T23:11:54.437Z,8.97
2019-04-28T23:14:26.537Z,7.83
2019-04-28T23:17:02.612Z,8.53
2019-04-28T23:19:41.303Z,8.03
2019-04-28T23:22:20.426Z,6.35
2019-04-28T23:24:55.014Z,7.10
2019-04-28T23:27:27.497Z,6.70
2019-04-28T23:30:00.654Z,8.10
2019-04-28T23:32:35.852Z,7.10
2019-04-28T23:35:12.744Z,8.13
2019-04-28T23:37:49.550Z,7.60
2019-04-28T23:40:28.644Z,7.92
2019-04-28T23:43:11.498Z,9.70
2019-04-28T23:46:05.088Z,8.77
2019-04-28T23:48:27.343Z,7.10
2019-04-28T23:51:18.347Z,10.53
2019-04-28T23:54:01.941Z,7.30
2019-04-28T23:56:39.923Z,9.07
2019-04-28T23:59:11.210Z,7.87
